METAR Data
IDs: Format: Raw Decoded Include TAF

Data at: 2058 UTC 19 May 2019

KSJT 192051Z 10010KT 10SM CLR 29/12 A2989 RMK AO2 SLP103 T02940117 56018
KSJT 191951Z 06009KT 10SM CLR 29/12 A2990 RMK AO2 SLP109 T02890117
KSJT 191851Z 06006KT 10SM CLR 28/12 A2992 RMK AO2 SLP114 T02780122
KSJT 191751Z 04007KT 10SM CLR 26/13 A2994 RMK AO2 SLP123 T02610133 10261 20100 58001
KSJT 191651Z 07009KT 10SM CLR 24/12 A2996 RMK AO2 SLP130 T02440122
KSJT 191551Z 06010KT 10SM CLR 22/11 A2995 RMK AO2 SLP128 T02220111
KSJT 191451Z 07010KT 10SM CLR 20/09 A2994 RMK AO2 SLP127 T02000094 51018
KSJT 191410Z 07007KT 10SM CLR 19/08 A2994 RMK AO2 T01890083
KSJT 191351Z 07006KT 10SM CLR 18/09 A2994 RMK AO2 SLP122 T01780089
KSJT 191251Z 00000KT 10SM CLR 14/11 A2992 RMK AO2 SLP114 T01440111
KSJT 191151Z 25005KT 10SM CLR 10/07 A2989 RMK AO2 SLP105 70053 T01000072 10156 20100 53017
KSJT 191051Z AUTO 28003KT 10SM CLR 12/08 A2985 RMK AO2 SLP091 T01220083
KSJT 190951Z AUTO 24006KT 10SM CLR 12/08 A2984 RMK AO2 SLP088 T01170078
KSJT 190851Z AUTO 23004KT 10SM CLR 12/07 A2983 RMK AO2 SLP085 T01220072 52010
KSJT 190751Z AUTO 21007KT 10SM CLR 13/08 A2982 RMK AO2 SLP080 T01280083
KSJT 190651Z AUTO 20008KT 10SM CLR 14/10 A2981 RMK AO2 SLP076 T01390100
KSJT 190551Z AUTO 25003KT 10SM CLR 15/09 A2980 RMK AO2 SLP072 T01500094 10294 20150 403060150 51021
KSJT 190451Z AUTO 20007KT 10SM CLR 16/09 A2978 RMK AO2 SLP066 T01610094
KSJT 190351Z AUTO 20006KT 10SM CLR 17/11 A2977 RMK AO2 SLP061 T01720111
KSJT 190251Z AUTO 21006KT 10SM CLR 18/13 A2974 RMK AO2 SLP055 T01780128 53020
KSJT 190151Z AUTO 20004KT 10SM CLR 22/13 A2972 RMK AO2 SLP047 T02170128
KSJT 190051Z 27005KT 10SM CLR 27/12 A2969 RMK AO2 SLP031 T02670122
KSJT 182351Z 27007KT 10SM CLR 29/11 A2968 RMK AO2 SLP025 T02940106 10306 20294 56007
KSJT 182251Z 27012KT 10SM CLR 30/07 A2968 RMK AO2 SLP025 T03000072
KSJT 182151Z 27011KT 10SM CLR 31/11 A2968 RMK AO2 SLP023 T03060106
KSJT 182051Z 27011KT 10SM CLR 30/11 A2970 RMK AO2 SLP030 T03000106 57003
KSJT 181951Z 28015G23KT 10SM CLR 30/12 A2970 RMK AO2 SLP032 T03000117
KSJT 181851Z 28013G20KT 10SM CLR 30/14 A2970 RMK AO2 SLP031 T03000144
KSJT 181751Z 28014KT 10SM CLR 29/17 A2971 RMK AO2 SLP032 60053 T02940167 10294 20183 53001
KSJT 181651Z 27015KT 10SM CLR 28/16 A2971 RMK AO2 PK WND 25026/1559 WSHFT 1545 SLP035 T02780156
KSJT 181605Z 25019KT 10SM CLR 26/14 A2970 RMK AO2 PK WND 25026/1559 WSHFT 1545 T02610144
KSJT 181551Z 23013G20KT 9SM CLR 27/22 A2969 RMK AO2 SLP031 T02670222
KSJT 181451Z 23004KT 10SM CLR 19/18 A2970 RMK AO2 LTG DSNT NE-SE RAE06 TSE20 SLP038 P0015 60053 T01940178 50012
KSJT 181431Z 31004KT 10SM SCT020 19/18 A2970 RMK AO2 LTG DSNT NE-S RAE06 TSE20 P0015 T01940178
KSJT 181426Z 00000KT 10SM VCTS BKN020 19/18 A2970 RMK AO2 LTG DSNT NE-S RAE06 TSE20 P0015 T01890178
KSJT 181409Z 31005KT 10SM TS BKN018 OVC028 19/17 A2970 RMK AO2 LTG DSNT ALQDS RAE06 P0015 T01890167
KSJT 181402Z 32004KT 2 1/2SM -TSRA BR BKN019 OVC027 18/17 A2969 RMK AO2 LTG DSNT ALQDS P0015 T01830167
KSJT 181351Z 32010KT 3/4SM +TSRA BR FEW011 BKN017 OVC022 18/17 A2971 RMK AO2 WSHFT 1320 LTG DSNT ALQDS RAB06 TSB19 SLP042 P0038 T01830167 RVRNO
KSJT 181344Z VRB06KT 1 1/2SM +TSRA BR FEW011 BKN016 OVC022 18/17 A2968 RMK AO2 WSHFT 1320 VIS 3/4V5 LTG DSNT ALQDS RAB06 TSB19 P0031 T01830167
KSJT 181335Z 34014KT 2SM +TSRA BR FEW012 BKN020 OVC030 19/18 A2968 RMK AO2 WSHFT 1320 LTG DSNT ALQDS RAB06 TSB19 P0021 T01940178
KSJT 181322Z 29013G17KT 1SM +TSRA BR SCT021 BKN029 OVC060 23/21 A2970 RMK AO2 LTG DSNT W-NE RAB06 TSB19 P0007 T02280211 RVRNO
KSJT 181318Z 22007KT 2 1/2SM -RA BR SCT023 BKN031 OVC060 23/21 A2969 RMK AO2 LTG DSNT W-NE RAB06 P0001 T02280206
KSJT 181314Z 19008KT 4SM VCTS -RA BR BKN023 BKN029 OVC060 22/21 A2969 RMK AO2 LTG DSNT W-NE RAB06 P0001 T02220206
KSJT 181302Z 17004KT 6SM VCTS BR SCT025 BKN031 OVC060 22/20 A2968 RMK AO2 LTG DSNT W-N T02220200
KSJT 181251Z 16005KT 6SM BR BKN025 OVC031 22/20 A2968 RMK AO2 LTG DSNT W-NE RAE1159 TSE1158 SLP027 P0000 T02170200
KSJT 181226Z 16005KT 10SM SCT012 BKN022 OVC047 21/19 A2966 RMK AO2 LTG DSNT ALQDS RAE1159 TSE1158 P0000 T02060189
KSJT 181212Z 18004KT 10SM BKN012 OVC031 21/19 A2967 RMK AO2 LTG DSNT ALQDS RAE1159 TSE1158 P0000 T02060189
KSJT 181158Z 29007KT 9SM VCTS -RA OVC012 20/18 A2967 RMK AO2 LTG DSNT NW-E TSE58 P0000 T02000183
KSJT 181151Z 28007KT 2SM -TSRA BR OVC014 20/19 A2967 RMK AO2 PK WND 32029/1100 WSHFT 1057 VIS 1 1/4V5 LTG DSNT ALQDS SLP024 P0070 60112 70112 T02000189 10250 20194 51003
KSJT 181149Z VRB06KT 2SM +TSRA BR OVC014 20/18 A2966 RMK AO2 PK WND 32029/1100 WSHFT 1057 VIS 1 1/4V5 LTG DSNT ALQDS P0069
KSJT 181139Z AUTO 03007KT 3SM +TSRA BR OVC014 19/18 A2965 RMK AO2 PK WND 32029/1100 WSHFT 1057 LTG DSNT ALQDS P0061 T01940183
KSJT 181132Z AUTO 03008KT 3SM -TSRA BR FEW010 OVC017 19/18 A2965 RMK AO2 PK WND 32029/1100 WSHFT 1057 LTG DSNT ALQDS P0059 T01940183
KSJT 181117Z AUTO 27007G19KT 1 3/4SM +TSRA BR FEW010 BKN015 OVC021 20/19 A2965 RMK AO2 PK WND 32029/1100 WSHFT 1057 LTG DSNT ALQDS P0044 T02000189
KSJT 181059Z AUTO 33023KT 1 1/4SM +TSRA BR BKN020 OVC027 20/18 A2962 RMK AO2 PK WND 32026/1059 LTG DSNT ALQDS PRESFR P0012 T02000183
KSJT 181051Z AUTO 32006KT 3/4SM +TSRA BR SCT015 BKN022 OVC026 21/19 A2966 RMK AO2 PK WND 22031/1026 WSHFT 1011 LTG DSNT ALQDS RAB17 SLP020 P0042 T02060189 RVRNO
KSJT 181033Z AUTO 26008G31KT 140V290 1 3/4SM +TSRA BR SCT015 BKN019 OVC070 21/19 A2964 RMK AO2 PK WND 22031/1026 WSHFT 1011 LTG DSNT ALQDS RAB17 P0004 T02060189
KSJT 181031Z AUTO 22008G31KT 3SM +TSRA BR SCT015 BKN019 OVC070 21/19 A2967 RMK AO2 PK WND 22031/1026 WSHFT 1011 LTG DSNT ALQDS RAB17 P0000 T02110189
KSJT 181022Z AUTO 23016G27KT 8SM -TSRA BKN018 BKN040 BKN090 23/20 A2965 RMK AO2 PK WND 12027/1014 WSHFT 1007 LTG DSNT ALQDS RAB17 CIG 014V024 PRESRR P0000 T02280200
KSJT 180951Z AUTO 12014KT 9SM TS BKN085 23/20 A2966 RMK AO2 LTG DSNT SW-N TSB25 SLP016 T02330200
KSJT 180931Z AUTO 15017G24KT 10SM TS FEW080 24/20 A2967 RMK AO2 LTG DSNT SW-N TSB25 T02390200
KSJT 180924Z AUTO 16017G24KT 10SM VCTS CLR 24/20 A2968 RMK AO2 LTG DSNT SW-N T02390200